Latest Weather Observations for Jabiru

IDD60801

Issued at 6:33 pm CST Monday 30 March 2015 (issued every 30 minutes, with the page automatically refreshed every 10 minutes)

About weather observations | Map of weather stations | Latest weather observations for NT | Other Formats
Station Details ID: 014198 Name: JABIRU AIRPORT Lat: -12.66 Lon: 132.89 Height: 26.5 m
Data from the previous 72 hours. | See also: Recent months at Jabiru
Date/Time
CST
Temp
°C
App
Temp
°C
Dew
Point
Rel
Hum
%
Delta-T
°C
Wind Press
QNH
hPa
Press
MSL
hPa
Rain
since 9 am
mm
Dir
 
Spd
km/h
Gust
km/h
Spd
kts
Gust
kts
30/06:30pm 32.6 34.9 19.8 46 8.5 NE 7 9 4 5 1010.8 1010.6 0.0
30/06:00pm 33.3 35.5 20.4 46 8.6 ENE 9 11 5 6 1010.6 1010.4 0.0
30/05:30pm 33.9 35.5 19.9 43 9.3 ENE 11 17 6 9 1010.2 1010.0 0.0
30/05:00pm 34.0 34.5 19.3 42 9.7 E 15 20 8 11 1010.3 1010.1 0.0
30/04:30pm 33.9 34.0 18.4 40 10.1 ENE 15 26 8 14 1010.4 1010.2 0.0
30/04:00pm 34.3 34.2 19.5 41 9.8 NE 19 24 10 13 1010.4 1010.2 0.0
30/03:30pm 34.3 33.6 19.5 41 9.8 ENE 22 32 12 17 1010.4 1010.2 0.0
30/03:00pm 33.8 33.7 18.7 40 9.9 E 17 30 9 16 1010.5 1010.3 0.0
30/02:30pm 33.5 34.3 20.6 46 8.6 NE 17 26 9 14 1010.8 1010.6 0.0
30/02:00pm 34.1 34.8 21.2 47 8.7 ENE 19 28 10 15 1011.1 1010.9 0.0
30/01:30pm 33.6 33.2 19.3 43 9.4 ENE 20 30 11 16 1011.3 1011.1 0.0
30/01:00pm 33.1 31.9 19.2 43 9.1 ENE 24 35 13 19 1011.7 1011.5 0.0
30/12:30pm 32.9 32.9 20.1 47 8.5 ENE 20 35 11 19 1012.0 1011.8 0.0
30/12:00pm 32.2 32.8 21.1 52 7.5 ENE 19 30 10 16 1012.6 1012.4 0.0
30/11:30am 31.6 32.3 20.5 51 7.4 E 17 24 9 13 1013.0 1012.8 0.0
30/11:00am 31.4 31.7 20.4 52 7.3 ENE 19 28 10 15 1013.4 1013.2 0.0
30/10:30am 30.5 31.0 20.1 53 6.9 E 17 26 9 14 1013.7 1013.5 0.0
30/10:00am 29.7 30.3 21.1 60 5.7 E 19 28 10 15 1013.8 1013.6 0.0
30/09:30am 29.1 29.8 21.6 64 5.0 E 20 32 11 17 1014.0 1013.8 0.0
30/09:00am 28.2 29.4 22.2 70 4.1 E 19 32 10 17 1013.8 1013.6 0.0
30/08:30am 27.3 29.6 22.0 73 3.6 E 13 22 7 12 1013.6 1013.4 0.0
30/08:00am 26.4 30.1 22.5 79 2.6 ESE 7 11 4 6 1013.1 1012.9 0.0
30/07:30am 25.4 28.9 22.1 82 2.2 ESE 7 11 4 6 1012.7 1012.5 0.0
30/07:00am 23.5 26.3 21.6 89 1.3 E 9 9 5 5 1012.4 1012.2 0.0
30/06:30am 23.5 26.7 21.6 89 1.3 ENE 7 9 4 5 1012.1 1011.9 0.0
30/06:00am 23.4 26.5 21.5 89 1.3 ESE 7 11 4 6 1011.9 1011.7 0.0
30/05:30am 23.6 26.5 21.7 89 1.3 E 9 11 5 6 1011.6 1011.4 0.0
30/05:00am 23.9 28.2 22.0 89 1.3 WNW 2 7 1 4 1011.5 1011.3 0.0
30/04:30am 24.2 29.1 22.3 89 1.3 CALM 0 0 0 0 1011.5 1011.3 0.0
30/04:00am 24.5 29.2 22.0 86 1.7 CALM 0 0 0 0 1011.4 1011.2 0.0
30/03:30am 24.8 29.9 22.7 88 1.4 CALM 0 0 0 0 1011.4 1011.2 0.0
30/03:00am 24.7 29.9 22.9 90 1.2 CALM 0 0 0 0 1011.5 1011.3 0.0
30/02:30am 25.2 30.5 23.1 88 1.4 CALM 0 0 0 0 1011.7 1011.5 0.0
30/02:00am 25.0 30.3 23.1 89 1.3 CALM 0 0 0 0 1012.1 1011.9 0.0
30/01:30am 25.4 30.6 22.9 86 1.7 CALM 0 0 0 0 1012.3 1012.1 0.0
30/01:00am 26.0 31.3 23.1 84 2.0 CALM 0 0 0 0 1012.8 1012.6 0.0
30/12:30am 25.6 29.4 22.7 84 2.0 E 7 20 4 11 1013.2 1013.0 0.0
30/12:00am 26.3 31.4 22.6 80 2.5 CALM 0 0 0 0 1013.3 1013.1 0.0
 
Date/Time
CST
Temp
°C
App
Temp
°C
Dew
Point
Rel
Hum
%
Delta-T
°C
Wind Press
QNH
hPa
Press
MSL
hPa
Rain
since 9 am
mm
Dir
 
Spd
km/h
Gust
km/h
Spd
kts
Gust
kts
29/11:30pm 26.0 31.2 22.9 83 2.1 CALM 0 0 0 0 1013.4 1013.2 0.0
29/11:00pm 26.9 32.0 22.7 78 2.8 CALM 0 6 0 3 1013.2 1013.0 0.0
29/10:30pm 27.4 31.3 23.0 77 3.0 WSW 7 7 4 4 1013.3 1013.1 0.0
29/10:00pm 27.8 32.4 23.8 79 2.8 WNW 6 9 3 5 1013.1 1012.9 0.0
29/09:30pm 28.6 34.4 23.9 75 3.2 CALM 0 0 0 0 1012.9 1012.7 0.0
29/09:00pm 28.4 33.3 22.4 70 4.1 CALM 0 0 0 0 1012.6 1012.4 0.0
29/08:30pm 29.8 35.5 23.7 70 4.2 CALM 0 0 0 0 1012.1 1011.9 0.0
29/08:00pm 29.4 33.4 20.5 58 5.9 CALM 0 0 0 0 1011.7 1011.5 0.0
29/07:30pm 30.7 34.4 21.5 58 6.2 N 4 6 2 3 1011.3 1011.1 0.0
29/07:00pm 31.1 33.5 20.1 52 7.3 NNE 7 9 4 5 1010.9 1010.7 0.0
29/06:30pm 32.3 34.8 20.2 48 8.0 ENE 7 9 4 5 1010.7 1010.5 0.0
29/06:00pm 33.5 34.2 18.0 39 10.0 ENE 11 17 6 9 1010.4 1010.2 0.0
29/05:30pm 34.2 34.5 17.8 37 10.6 ENE 13 19 7 10 1010.3 1010.1 0.0
29/05:00pm 34.6 34.9 17.8 37 10.9 E 13 20 7 11 1010.2 1010.0 0.0
29/04:30pm 34.6 34.1 17.8 37 10.9 NE 17 24 9 13 1010.1 1009.9 0.0
29/04:00pm 34.7 34.4 17.4 35 11.1 ENE 15 20 8 11 1009.9 1009.7 0.0
29/03:30pm 34.6 33.7 16.9 35 11.3 E 17 28 9 15 1010.0 1009.8 0.0
29/03:00pm 34.8 35.5 18.8 39 10.5 ENE 13 24 7 13 1010.1 1009.9 0.0
29/02:30pm 34.5 34.3 17.7 37 10.9 E 15 20 8 11 1010.3 1010.1 0.0
29/02:00pm 34.6 34.2 19.0 39 10.3 NE 19 26 10 14 1010.7 1010.5 0.0
29/01:30pm 34.1 34.1 19.0 41 9.9 ENE 17 26 9 14 1011.1 1010.9 0.0
29/01:00pm 33.9 33.8 19.6 43 9.5 ENE 19 28 10 15 1011.6 1011.4 0.0
29/12:30pm 33.2 34.9 21.7 51 7.8 ENE 15 24 8 13 1012.1 1011.9 0.0
29/12:00pm 33.0 35.2 20.5 47 8.4 E 9 17 5 9 1012.6 1012.4 0.0
29/11:30am 32.7 36.0 21.5 51 7.6 ESE 6 13 3 7 1013.0 1012.8 0.0
29/11:00am 31.7 33.9 21.2 53 7.1 ENE 11 22 6 12 1013.4 1013.2 0.0
29/10:30am 31.5 34.0 22.5 59 6.2 ENE 13 19 7 10 1013.4 1013.2 0.0
29/10:00am 30.9 34.4 22.8 62 5.5 ESE 9 17 5 9 1013.5 1013.3 0.0
29/09:30am 29.4 33.4 23.1 69 4.3 SSE 7 11 4 6 1013.5 1013.3 0.0
29/09:00am 29.1 33.3 23.5 72 3.9 E 7 13 4 7 1013.6 1013.4 0.0
29/08:30am 28.0 32.0 23.1 74 3.3 E 7 11 4 6 1013.3 1013.1 0.0
29/08:00am 26.7 32.2 23.4 82 2.3 CALM 0 0 0 0 1013.0 1012.8 0.0
29/07:30am 25.3 30.8 23.4 89 1.3 CALM 0 0 0 0 1012.7 1012.5 0.0
29/07:00am 24.3 29.5 22.9 92 0.9 CALM 0 0 0 0 1012.6 1012.4 0.0
29/06:30am 24.2 29.5 23.0 93 0.8 CALM 0 0 0 0 1012.3 1012.1 0.0
29/06:00am 24.2 29.4 22.8 92 0.9 CALM 0 0 0 0 1012.0 1011.8 0.0
29/05:30am 24.3 29.4 22.7 91 1.1 CALM 0 0 0 0 1011.8 1011.6 0.0
29/05:00am 24.4 29.7 23.0 92 0.9 CALM 0 0 0 0 1011.6 1011.4 0.0
29/04:30am 24.3 29.5 22.9 92 0.9 CALM 0 0 0 0 1011.4 1011.2 0.0
29/04:00am 24.5 29.7 22.9 91 1.1 CALM 0 0 0 0 1011.5 1011.3 0.0
29/03:30am 25.0 30.2 22.9 88 1.4 CALM 0 0 0 0 1011.6 1011.4 0.0
29/03:00am 25.0 30.3 23.1 89 1.3 CALM 0 0 0 0 1011.8 1011.6 0.0
29/02:30am 25.0 30.3 23.1 89 1.3 CALM 0 0 0 0 1012.1 1011.9 0.0
29/02:00am 25.3 30.6 23.0 87 1.6 CALM 0 0 0 0 1012.2 1012.0 0.0
29/01:30am 25.6 31.0 23.3 87 1.6 CALM 0 0 0 0 1012.5 1012.3 0.0
29/01:00am 26.1 31.5 23.2 84 2.0 CALM 0 6 0 3 1012.9 1012.7 0.0
29/12:30am 26.1 29.8 22.6 81 2.4 SSW 7 9 4 5 1013.3 1013.1 0.0
29/12:00am 26.2 29.9 22.3 79 2.6 SSW 6 9 3 5 1013.4 1013.2 0.0
 
Date/Time
CST
Temp
°C
App
Temp
°C
Dew
Point
Rel
Hum
%
Delta-T
°C
Wind Press
QNH
hPa
Press
MSL
hPa
Rain
since 9 am
mm
Dir
 
Spd
km/h
Gust
km/h
Spd
kts
Gust
kts
28/11:30pm 26.2 30.1 22.5 80 2.5 SW 6 9 3 5 1013.4 1013.2 0.0
28/11:00pm 26.4 30.1 22.3 78 2.8 SSW 6 9 3 5 1013.3 1013.1 0.0
28/10:30pm 27.1 31.2 22.3 75 3.2 NW 4 6 2 3 1013.3 1013.1 0.0
28/10:00pm 27.2 30.8 22.4 75 3.2 WSW 7 9 4 5 1013.0 1012.8 0.0
28/09:30pm 27.9 31.8 22.6 73 3.6 WNW 6 7 3 4 1013.0 1012.8 0.0
28/09:00pm 28.1 31.8 22.6 72 3.7 NW 7 11 4 6 1012.8 1012.6 0.0
28/08:30pm 28.7 32.5 22.7 70 4.1 NW 7 11 4 6 1012.5 1012.3 0.0
28/08:00pm 29.1 32.4 22.6 68 4.4 NW 9 11 5 6 1012.0 1011.8 0.0
28/07:30pm 29.9 32.8 21.8 62 5.5 NNW 9 13 5 7 1011.4 1011.2 0.0
28/07:00pm 31.3 34.1 20.9 54 7.0 N 7 9 4 5 1010.7 1010.5 0.0
28/06:30pm 32.0 34.7 20.6 51 7.6 NNE 7 11 4 6 1010.4 1010.2 0.0
28/06:00pm 33.1 34.7 19.9 45 8.8 NE 11 17 6 9 1010.1 1009.9 0.0
28/05:30pm 34.1 35.6 19.7 42 9.6 ENE 11 17 6 9 1009.9 1009.7 0.0
28/05:00pm 34.5 35.2 18.9 39 10.2 ENE 13 19 7 10 1009.8 1009.6 0.0
28/04:30pm 34.1 33.9 18.6 40 10.1 ENE 17 24 9 13 1009.8 1009.6 0.0
28/04:00pm 34.7 34.0 18.3 38 10.7 ENE 19 28 10 15 1009.6 1009.4 0.0
28/03:30pm 34.2 35.0 19.8 42 9.6 NE 15 20 8 11 1009.7 1009.5 0.0
28/03:00pm 34.2 35.9 20.9 45 9.0 ENE 13 20 7 11 1010.0 1009.8 0.0
28/02:30pm 34.3 35.5 19.9 42 9.6 E 13 20 7 11 1010.4 1010.2 0.0
28/02:00pm 33.8 36.9 22.2 50 7.9 E 9 20 5 11 1010.8 1010.6 0.0
28/01:30pm 33.5 37.2 23.2 54 7.1 NE 9 19 5 10 1011.3 1011.1 0.0
28/01:00pm 33.2 35.5 22.0 51 7.6 NE 13 20 7 11 1011.8 1011.6 0.0
28/12:30pm 32.9 35.8 21.7 51 7.6 ENE 9 17 5 9 1012.4 1012.2 0.0
28/12:00pm 32.0 35.1 22.1 55 6.7 E 9 20 5 11 1012.9 1012.7 0.0
28/11:30am 32.5 35.4 23.2 58 6.4 E 13 22 7 12 1013.2 1013.0 0.0
28/11:00am 31.3 35.1 23.4 63 5.5 NW 9 13 5 7 1013.7 1013.5 0.0
28/10:30am 30.4 34.1 23.3 66 4.9 N 9 15 5 8 1013.8 1013.6 0.0
28/10:00am 29.6 33.7 23.3 69 4.3 NE 7 11 4 6 1013.8 1013.6 0.0
28/09:30am 29.3 33.5 23.5 71 4.0 NNE 7 11 4 6 1013.8 1013.6 0.0
28/09:00am 28.2 32.2 23.1 74 3.5 E 7 9 4 5 1013.6 1013.4 11.8
28/08:30am 27.1 30.8 23.3 80 2.6 E 9 11 5 6 1013.4 1013.2 11.8
28/08:00am 26.0 30.5 23.7 87 1.6 ESE 6 9 3 5 1013.1 1012.9 11.8
28/07:30am 24.7 29.9 23.5 93 0.8 E 2 7 1 4 1012.9 1012.7 11.8
28/07:00am 23.8 28.4 23.1 96 0.5 ESE 4 6 2 3 1012.6 1012.4 11.8
28/06:30am 23.6 28.8 22.8 95 0.5 CALM 0 0 0 0 1012.2 1012.0 11.8
28/06:00am 23.9 29.2 23.0 95 0.6 CALM 0 0 0 0 1011.9 1011.7 11.8
28/05:30am 23.9 29.2 23.0 95 0.6 CALM 0 0 0 0 1011.7 1011.5 11.8
28/05:00am 24.0 29.3 23.1 95 0.6 CALM 0 0 0 0 1011.7 1011.5 11.8
28/04:30am 24.0 29.3 23.1 95 0.6 CALM 0 0 0 0 1011.7 1011.5 11.8
28/04:00am 24.1 29.5 23.2 95 0.6 CALM 0 0 0 0 1011.6 1011.4 11.8
28/03:30am 24.2 29.6 23.3 95 0.6 CALM 0 0 0 0 1011.7 1011.5 11.8
28/03:00am 24.5 30.1 23.6 95 0.6 CALM 0 0 0 0 1011.9 1011.7 11.8
28/02:30am 24.6 30.2 23.6 94 0.7 CALM 0 0 0 0 1012.3 1012.1 11.8
28/02:00am 24.7 30.4 23.7 94 0.7 CALM 0 0 0 0 1012.6 1012.4 11.8
28/01:30am 24.7 30.3 23.5 93 0.8 CALM 0 0 0 0 1013.0 1012.8 11.8
28/01:00am 25.0 30.7 23.8 93 0.8 CALM 0 0 0 0 1013.2 1013.0 11.8
28/12:30am 25.2 31.0 24.0 93 0.8 CALM 0 0 0 0 1013.5 1013.3 11.8
28/12:00am 25.2 30.9 23.8 92 1.0 CALM 0 0 0 0 1013.7 1013.5 11.8
 
Date/Time
CST
Temp
°C
App
Temp
°C
Dew
Point
Rel
Hum
%
Delta-T
°C
Wind Press
QNH
hPa
Press
MSL
hPa
Rain
since 9 am
mm
Dir
 
Spd
km/h
Gust
km/h
Spd
kts
Gust
kts
27/11:30pm 25.2 30.9 23.8 92 1.0 CALM 0 0 0 0 1014.0 1013.8 11.8
27/11:00pm 25.2 29.5 23.3 89 1.3 ESE 6 7 3 4 1013.9 1013.7 11.8
27/10:30pm 25.6 29.9 23.3 87 1.6 W 6 9 3 5 1014.1 1013.9 11.8
27/10:00pm 25.9 30.3 23.8 88 1.4 WNW 7 11 4 6 1014.1 1013.9 11.8
27/09:30pm 26.2 31.9 23.7 86 1.7 CALM 0 0 0 0 1014.2 1014.0 11.8
27/09:00pm 26.2 30.5 23.3 84 2.0 W 6 9 3 5 1014.0 1013.8 11.8
27/08:30pm 26.2 30.8 23.1 83 2.1 SSW 4 6 2 3 1014.0 1013.8 11.8
27/08:00pm 26.2 29.9 23.3 84 2.0 SSW 9 13 5 7 1013.5 1013.3 11.8
27/07:30pm 26.5 31.6 23.4 83 2.1 WNW 2 7 1 4 1012.8 1012.6 11.8
27/07:00pm 26.5 31.4 23.6 84 2.0 SSW 4 11 2 6 1012.5 1012.3 11.8

Other Formats:

Comma delimited format used in spreadsheet applications
http://www.bom.gov.au/fwo/IDD60801/IDD60801.94137.axf

JavaScript Object Notation format (JSON) in row-major order
http://www.bom.gov.au/fwo/IDD60801/IDD60801.94137.json